sensor_id;sensor_type;location;lat;lon;timestamp;pressure;altitude;pressure_sealevel;temperature;humidity
66762;BME280;53672;48.176;16.338;2022-09-21T00:01:50;99748.97;;;7.83;100.00
66762;BME280;53672;48.176;16.338;2022-09-21T00:06:52;99759.19;;;7.86;100.00
66762;BME280;53672;48.176;16.338;2022-09-21T00:11:52;99754.16;;;7.90;100.00
66762;BME280;53672;48.176;16.338;2022-09-21T00:16:53;99760.56;;;7.89;100.00
66762;BME280;53672;48.176;16.338;2022-09-21T00:21:55;99755.19;;;7.89;100.00
66762;BME280;53672;48.176;16.338;2022-09-21T00:26:55;99754.66;;;7.87;99.65
66762;BME280;53672;48.176;16.338;2022-09-21T00:31:56;99758.94;;;7.88;99.47
66762;BME280;53672;48.176;16.338;2022-09-21T00:36:58;99758.38;;;7.86;99.42
66762;BME280;53672;48.176;16.338;2022-09-21T00:41:58;99750.56;;;7.84;99.32
66762;BME280;53672;48.176;16.338;2022-09-21T00:47:02;99748.97;;;7.83;99.45
66762;BME280;53672;48.176;16.338;2022-09-21T00:52:07;99749.50;;;7.85;99.73
66762;BME280;53672;48.176;16.338;2022-09-21T00:57:08;99754.88;;;7.85;99.76
66762;BME280;53672;48.176;16.338;2022-09-21T01:02:09;99757.56;;;7.85;99.70
66762;BME280;53672;48.176;16.338;2022-09-21T01:07:16;99750.56;;;7.84;99.66
66762;BME280;53672;48.176;16.338;2022-09-21T01:12:29;99756.44;;;7.81;99.40
66762;BME280;53672;48.176;16.338;2022-09-21T01:17:40;99756.09;;;7.78;99.39
66762;BME280;53672;48.176;16.338;2022-09-21T01:22:55;99752.31;;;7.74;99.24
66762;BME280;53672;48.176;16.338;2022-09-21T01:28:06;99752.22;;;7.69;99.30
66762;BME280;53672;48.176;16.338;2022-09-21T01:33:12;99750.03;;;7.65;99.54
66762;BME280;53672;48.176;16.338;2022-09-21T01:38:18;99757.28;;;7.65;99.93
66762;BME280;53672;48.176;16.338;2022-09-21T01:43:23;99750.28;;;7.64;100.00
66762;BME280;53672;48.176;16.338;2022-09-21T01:48:30;99756.47;;;7.64;100.00
66762;BME280;53672;48.176;16.338;2022-09-21T01:53:33;99752.97;;;7.64;100.00
66762;BME280;53672;48.176;16.338;2022-09-21T01:58:42;99758.91;;;7.66;100.00
66762;BME280;53672;48.176;16.338;2022-09-21T02:03:48;99762.97;;;7.69;100.00
66762;BME280;53672;48.176;16.338;2022-09-21T02:08:50;99755.78;;;7.74;100.00
66762;BME280;53672;48.176;16.338;2022-09-21T02:13:52;99752.69;;;7.82;99.50
66762;BME280;53672;48.176;16.338;2022-09-21T02:19:05;99758.78;;;7.94;98.71
66762;BME280;53672;48.176;16.338;2022-09-21T02:24:12;99760.78;;;8.04;97.97
66762;BME280;53672;48.176;16.338;2022-09-21T02:29:19;99766.78;;;8.11;96.47
66762;BME280;53672;48.176;16.338;2022-09-21T02:34:28;99776.78;;;8.15;95.80
66762;BME280;53672;48.176;16.338;2022-09-21T02:39:34;99787.00;;;8.18;95.89
66762;BME280;53672;48.176;16.338;2022-09-21T02:44:41;99777.66;;;8.21;95.59
66762;BME280;53672;48.176;16.338;2022-09-21T02:49:46;99776.59;;;8.22;94.88
66762;BME280;53672;48.176;16.338;2022-09-21T02:54:51;99780.91;;;8.23;94.56
66762;BME280;53672;48.176;16.338;2022-09-21T02:59:52;99787.63;;;8.26;94.21
66762;BME280;53672;48.176;16.338;2022-09-21T03:04:54;99786.13;;;8.30;94.29
66762;BME280;53672;48.176;16.338;2022-09-21T03:09:54;99781.56;;;8.30;94.17
66762;BME280;53672;48.176;16.338;2022-09-21T03:14:55;99792.06;;;8.32;94.50
66762;BME280;53672;48.176;16.338;2022-09-21T03:19:57;99788.31;;;8.33;94.70
66762;BME280;53672;48.176;16.338;2022-09-21T03:24:57;99804.41;;;8.33;94.65
66762;BME280;53672;48.176;16.338;2022-09-21T03:29:58;99801.72;;;8.33;94.28
66762;BME280;53672;48.176;16.338;2022-09-21T03:34:59;99794.50;;;8.33;94.13
66762;BME280;53672;48.176;16.338;2022-09-21T03:40:00;99797.44;;;8.32;94.13
66762;BME280;53672;48.176;16.338;2022-09-21T03:45:01;99808.72;;;8.34;94.41
66762;BME280;53672;48.176;16.338;2022-09-21T03:50:03;99807.59;;;8.30;94.01
66762;BME280;53672;48.176;16.338;2022-09-21T03:55:05;99811.81;;;8.26;94.14
66762;BME280;53672;48.176;16.338;2022-09-21T04:00:08;99819.00;;;8.20;94.47
66762;BME280;53672;48.176;16.338;2022-09-21T04:05:13;99817.03;;;8.15;94.67
66762;BME280;53672;48.176;16.338;2022-09-21T04:10:15;99828.28;;;8.12;94.76
66762;BME280;53672;48.176;16.338;2022-09-21T04:15:17;99828.78;;;8.09;94.87
66762;BME280;53672;48.176;16.338;2022-09-21T04:20:20;99826.03;;;8.04;95.53
66762;BME280;53672;48.176;16.338;2022-09-21T04:25:20;99838.06;;;8.02;95.33
66762;BME280;53672;48.176;16.338;2022-09-21T04:30:21;99841.22;;;7.99;95.80
66762;BME280;53672;48.176;16.338;2022-09-21T04:35:22;99845.13;;;7.91;96.56
66762;BME280;53672;48.176;16.338;2022-09-21T04:40:23;99842.41;;;7.86;96.81
66762;BME280;53672;48.176;16.338;2022-09-21T04:45:23;99850.28;;;7.76;97.76
66762;BME280;53672;48.176;16.338;2022-09-21T04:50:25;99853.47;;;7.73;98.76
66762;BME280;53672;48.176;16.338;2022-09-21T04:55:25;99864.34;;;7.67;99.39
66762;BME280;53672;48.176;16.338;2022-09-21T05:00:26;99861.09;;;7.64;99.73
66762;BME280;53672;48.176;16.338;2022-09-21T05:05:28;99865.72;;;7.69;99.96
66762;BME280;53672;48.176;16.338;2022-09-21T05:10:28;99865.00;;;7.74;100.00
66762;BME280;53672;48.176;16.338;2022-09-21T05:15:29;99860.84;;;7.83;100.00
66762;BME280;53672;48.176;16.338;2022-09-21T05:20:30;99866.69;;;7.96;99.44
66762;BME280;53672;48.176;16.338;2022-09-21T05:25:31;99875.47;;;8.08;98.65
66762;BME280;53672;48.176;16.338;2022-09-21T05:30:32;99870.75;;;8.15;97.88
66762;BME280;53672;48.176;16.338;2022-09-21T05:35:37;99878.16;;;8.25;97.37
66762;BME280;53672;48.176;16.338;2022-09-21T05:40:42;99881.72;;;8.47;96.62
66762;BME280;53672;48.176;16.338;2022-09-21T05:45:44;99882.28;;;8.71;95.23
66762;BME280;53672;48.176;16.338;2022-09-21T05:50:53;99892.53;;;8.96;92.99
66762;BME280;53672;48.176;16.338;2022-09-21T05:55:56;99903.34;;;9.23;92.10
66762;BME280;53672;48.176;16.338;2022-09-21T06:01:10;99904.72;;;9.52;90.30
66762;BME280;53672;48.176;16.338;2022-09-21T06:06:15;99911.00;;;9.89;87.73
66762;BME280;53672;48.176;16.338;2022-09-21T06:11:16;99903.19;;;10.25;86.06
66762;BME280;53672;48.176;16.338;2022-09-21T06:16:17;99902.44;;;10.76;82.37
66762;BME280;53672;48.176;16.338;2022-09-21T06:21:19;99909.28;;;11.04;80.16
66762;BME280;53672;48.176;16.338;2022-09-21T06:26:19;99915.53;;;11.14;78.92
66762;BME280;53672;48.176;16.338;2022-09-21T06:31:20;99913.59;;;10.95;78.19
66762;BME280;53672;48.176;16.338;2022-09-21T06:36:21;99922.97;;;10.87;79.34
66762;BME280;53672;48.176;16.338;2022-09-21T06:41:22;99929.16;;;10.83;79.26
66762;BME280;53672;48.176;16.338;2022-09-21T06:46:22;99933.47;;;10.84;78.88
66762;BME280;53672;48.176;16.338;2022-09-21T06:51:24;99948.34;;;10.91;78.94
66762;BME280;53672;48.176;16.338;2022-09-21T06:56:25;99955.63;;;10.91;78.63
66762;BME280;53672;48.176;16.338;2022-09-21T07:01:25;99949.91;;;10.82;78.05
66762;BME280;53672;48.176;16.338;2022-09-21T07:06:27;99948.56;;;10.80;78.34
66762;BME280;53672;48.176;16.338;2022-09-21T07:11:28;99950.44;;;10.79;78.45
66762;BME280;53672;48.176;16.338;2022-09-21T07:16:28;99950.13;;;10.71;78.34
66762;BME280;53672;48.176;16.338;2022-09-21T07:21:30;99959.03;;;11.23;81.78
66762;BME280;53672;48.176;16.338;2022-09-21T07:26:30;99958.47;;;11.16;77.00
66762;BME280;53672;48.176;16.338;2022-09-21T07:31:31;99960.38;;;11.31;76.71
66762;BME280;53672;48.176;16.338;2022-09-21T07:36:33;99970.00;;;11.74;74.54
66762;BME280;53672;48.176;16.338;2022-09-21T07:41:33;99965.97;;;11.96;71.82
66762;BME280;53672;48.176;16.338;2022-09-21T07:46:34;99964.34;;;12.51;71.54
66762;BME280;53672;48.176;16.338;2022-09-21T07:51:36;99966.72;;;12.83;68.67
66762;BME280;53672;48.176;16.338;2022-09-21T07:56:37;99966.22;;;12.60;68.88
66762;BME280;53672;48.176;16.338;2022-09-21T08:01:39;99968.66;;;12.57;70.06
66762;BME280;53672;48.176;16.338;2022-09-21T08:06:41;99972.34;;;13.01;69.21
66762;BME280;53672;48.176;16.338;2022-09-21T08:11:42;99968.72;;;13.41;66.86
66762;BME280;53672;48.176;16.338;2022-09-21T08:16:42;99963.56;;;13.45;67.15
66762;BME280;53672;48.176;16.338;2022-09-21T08:21:47;99968.63;;;13.56;66.60
66762;BME280;53672;48.176;16.338;2022-09-21T08:26:47;99966.25;;;13.45;66.87
66762;BME280;53672;48.176;16.338;2022-09-21T08:31:48;99970.00;;;13.59;66.72
66762;BME280;53672;48.176;16.338;2022-09-21T08:36:49;99966.00;;;13.41;66.06
66762;BME280;53672;48.176;16.338;2022-09-21T08:47:16;99968.19;;;14.56;62.38
66762;BME280;53672;48.176;16.338;2022-09-21T08:52:20;99966.03;;;15.29;59.91
66762;BME280;53672;48.176;16.338;2022-09-21T08:57:30;99960.00;;;15.93;58.60
66762;BME280;53672;48.176;16.338;2022-09-21T09:02:44;99953.25;;;16.42;56.74
66762;BME280;53672;48.176;16.338;2022-09-21T09:08:12;99952.25;;;17.11;54.13
66762;BME280;53672;48.176;16.338;2022-09-21T09:13:28;99957.28;;;17.58;52.37
66762;BME280;53672;48.176;16.338;2022-09-21T09:18:38;99962.38;;;18.54;50.41
66762;BME280;53672;48.176;16.338;2022-09-21T09:23:46;99967.97;;;18.49;49.28
66762;BME280;53672;48.176;16.338;2022-09-21T09:28:50;99957.31;;;19.00;47.42
66762;BME280;53672;48.176;16.338;2022-09-21T09:33:56;99960.31;;;19.21;47.43
66762;BME280;53672;48.176;16.338;2022-09-21T09:39:02;99961.75;;;18.88;48.80
66762;BME280;53672;48.176;16.338;2022-09-21T09:44:17;99953.63;;;17.99;49.59
66762;BME280;53672;48.176;16.338;2022-09-21T09:49:29;99945.09;;;17.29;50.96
66762;BME280;53672;48.176;16.338;2022-09-21T09:54:35;99945.50;;;16.95;52.89
66762;BME280;53672;48.176;16.338;2022-09-21T09:59:39;99951.34;;;16.88;53.86
66762;BME280;53672;48.176;16.338;2022-09-21T10:04:53;99944.16;;;16.92;51.11
66762;BME280;53672;48.176;16.338;2022-09-21T10:09:55;99948.00;;;18.17;48.81
66762;BME280;53672;48.176;16.338;2022-09-21T10:14:56;99941.44;;;19.85;45.47
66762;BME280;53672;48.176;16.338;2022-09-21T10:19:58;99926.78;;;20.23;42.71
66762;BME280;53672;48.176;16.338;2022-09-21T10:25:01;99928.88;;;19.75;43.19
66762;BME280;53672;48.176;16.338;2022-09-21T10:30:02;99924.56;;;20.72;40.70
66762;BME280;53672;48.176;16.338;2022-09-21T10:35:14;99922.91;;;21.26;40.18
66762;BME280;53672;48.176;16.338;2022-09-21T10:40:25;99920.19;;;21.17;40.65
66762;BME280;53672;48.176;16.338;2022-09-21T10:45:27;99920.91;;;20.97;44.59
66762;BME280;53672;48.176;16.338;2022-09-21T10:50:34;99920.00;;;20.38;49.81
66762;BME280;53672;48.176;16.338;2022-09-21T10:55:38;99916.44;;;20.38;45.57
66762;BME280;53672;48.176;16.338;2022-09-21T11:00:41;99913.34;;;21.32;41.70
66762;BME280;53672;48.176;16.338;2022-09-21T11:05:43;99912.81;;;21.09;37.91
66762;BME280;53672;48.176;16.338;2022-09-21T11:10:50;99927.25;;;21.98;41.62
66762;BME280;53672;48.176;16.338;2022-09-21T11:15:55;99909.06;;;22.95;37.67
66762;BME280;53672;48.176;16.338;2022-09-21T11:21:03;99922.09;;;23.71;39.05
66762;BME280;53672;48.176;16.338;2022-09-21T11:26:11;99910.59;;;24.37;36.18
66762;BME280;53672;48.176;16.338;2022-09-21T11:31:39;99902.16;;;23.62;35.10
66762;BME280;53672;48.176;16.338;2022-09-21T11:36:47;99891.69;;;23.80;38.76
66762;BME280;53672;48.176;16.338;2022-09-21T11:42:01;99897.63;;;23.17;41.78
66762;BME280;53672;48.176;16.338;2022-09-21T11:47:15;99902.88;;;22.98;39.94
66762;BME280;53672;48.176;16.338;2022-09-21T11:52:29;99897.31;;;21.13;40.76
66762;BME280;53672;48.176;16.338;2022-09-21T11:57:40;99892.19;;;19.67;43.88
66762;BME280;53672;48.176;16.338;2022-09-21T12:03:00;99898.34;;;18.38;47.75
66762;BME280;53672;48.176;16.338;2022-09-21T12:08:19;99887.00;;;18.84;46.24
66762;BME280;53672;48.176;16.338;2022-09-21T12:13:37;99888.19;;;19.65;45.42
66762;BME280;53672;48.176;16.338;2022-09-21T12:18:44;99880.69;;;20.25;43.55
66762;BME280;53672;48.176;16.338;2022-09-21T12:23:51;99869.44;;;20.18;45.94
66762;BME280;53672;48.176;16.338;2022-09-21T12:28:58;99877.06;;;20.59;46.55
66762;BME280;53672;48.176;16.338;2022-09-21T12:34:03;99868.69;;;20.94;42.13
66762;BME280;53672;48.176;16.338;2022-09-21T12:39:11;99866.22;;;21.09;41.55
66762;BME280;53672;48.176;16.338;2022-09-21T12:44:17;99868.44;;;21.16;42.99
66762;BME280;53672;48.176;16.338;2022-09-21T12:49:23;99868.59;;;21.19;45.78
66762;BME280;53672;48.176;16.338;2022-09-21T12:54:30;99858.81;;;21.01;43.37
66762;BME280;53672;48.176;16.338;2022-09-21T12:59:39;99862.03;;;20.36;44.42
66762;BME280;53672;48.176;16.338;2022-09-21T13:04:49;99851.28;;;20.05;48.49
66762;BME280;53672;48.176;16.338;2022-09-21T13:09:52;99857.06;;;20.12;46.46
66762;BME280;53672;48.176;16.338;2022-09-21T13:14:58;99848.34;;;20.28;41.72
66762;BME280;53672;48.176;16.338;2022-09-21T13:20:03;99837.44;;;20.02;42.19
66762;BME280;53672;48.176;16.338;2022-09-21T13:25:14;99839.69;;;20.08;43.95
66762;BME280;53672;48.176;16.338;2022-09-21T13:30:28;99843.75;;;19.77;44.57
66762;BME280;53672;48.176;16.338;2022-09-21T13:36:00;99845.06;;;19.53;44.91
66762;BME280;53672;48.176;16.338;2022-09-21T13:41:02;99839.22;;;19.29;44.86
66762;BME280;53672;48.176;16.338;2022-09-21T13:46:05;99835.69;;;18.63;52.30
66762;BME280;53672;48.176;16.338;2022-09-21T13:51:07;99839.13;;;18.38;49.88
66762;BME280;53672;48.176;16.338;2022-09-21T13:56:18;99832.56;;;17.86;49.49
66762;BME280;53672;48.176;16.338;2022-09-21T14:01:22;99825.06;;;17.34;54.71
66762;BME280;53672;48.176;16.338;2022-09-21T14:06:24;99820.59;;;17.15;50.38
66762;BME280;53672;48.176;16.338;2022-09-21T14:11:29;99811.16;;;16.45;51.49
66762;BME280;53672;48.176;16.338;2022-09-21T14:17:02;99821.22;;;16.31;53.30
66762;BME280;53672;48.176;16.338;2022-09-21T14:27:49;99809.22;;;16.18;54.27
66762;BME280;53672;48.176;16.338;2022-09-21T14:33:04;99804.03;;;16.03;56.66
66762;BME280;53672;48.176;16.338;2022-09-21T14:38:13;99811.81;;;15.96;55.10
66762;BME280;53672;48.176;16.338;2022-09-21T14:43:20;99816.00;;;15.88;54.86
66762;BME280;53672;48.176;16.338;2022-09-21T14:48:34;99820.44;;;15.84;55.42
66762;BME280;53672;48.176;16.338;2022-09-21T14:53:56;99824.16;;;15.88;55.38
66762;BME280;53672;48.176;16.338;2022-09-21T14:59:11;99825.44;;;15.77;55.53
66762;BME280;53672;48.176;16.338;2022-09-21T15:04:28;99825.56;;;15.53;56.63
66762;BME280;53672;48.176;16.338;2022-09-21T15:09:43;99820.25;;;15.24;57.84
66762;BME280;53672;48.176;16.338;2022-09-21T15:14:55;99818.34;;;15.06;58.07
66762;BME280;53672;48.176;16.338;2022-09-21T15:20:20;99821.28;;;14.67;59.75
66762;BME280;53672;48.176;16.338;2022-09-21T15:25:22;99824.47;;;14.51;61.24
66762;BME280;53672;48.176;16.338;2022-09-21T15:30:25;99815.41;;;14.37;61.73
66762;BME280;53672;48.176;16.338;2022-09-21T15:35:30;99809.13;;;14.12;62.03
66762;BME280;53672;48.176;16.338;2022-09-21T15:40:34;99814.19;;;13.95;63.06
66762;BME280;53672;48.176;16.338;2022-09-21T15:45:47;99813.13;;;13.91;64.29
66762;BME280;53672;48.176;16.338;2022-09-21T15:50:52;99811.81;;;13.89;64.42
66762;BME280;53672;48.176;16.338;2022-09-21T15:55:54;99823.22;;;13.86;65.69
66762;BME280;53672;48.176;16.338;2022-09-21T16:00:54;99821.97;;;13.73;65.60
66762;BME280;53672;48.176;16.338;2022-09-21T16:05:56;99823.41;;;13.65;65.90
66762;BME280;53672;48.176;16.338;2022-09-21T16:11:18;99818.09;;;13.50;65.99
66762;BME280;53672;48.176;16.338;2022-09-21T16:16:19;99830.88;;;13.40;66.27
66762;BME280;53672;48.176;16.338;2022-09-21T16:21:22;99826.66;;;13.29;66.76
66762;BME280;53672;48.176;16.338;2022-09-21T16:26:33;99829.38;;;13.18;67.66
66762;BME280;53672;48.176;16.338;2022-09-21T16:31:34;99829.19;;;13.10;67.67
66762;BME280;53672;48.176;16.338;2022-09-21T16:36:43;99838.72;;;12.97;68.43
66762;BME280;53672;48.176;16.338;2022-09-21T16:42:00;99834.63;;;12.95;68.69
66762;BME280;53672;48.176;16.338;2022-09-21T16:47:02;99841.22;;;12.84;69.18
66762;BME280;53672;48.176;16.338;2022-09-21T16:52:04;99839.88;;;12.76;69.89
66762;BME280;53672;48.176;16.338;2022-09-21T16:57:05;99849.91;;;12.70;72.08
66762;BME280;53672;48.176;16.338;2022-09-21T17:02:06;99850.22;;;12.54;70.89
66762;BME280;53672;48.176;16.338;2022-09-21T17:07:11;99854.34;;;12.46;71.37
66762;BME280;53672;48.176;16.338;2022-09-21T17:12:14;99853.84;;;12.29;71.75
66762;BME280;53672;48.176;16.338;2022-09-21T17:17:18;99858.44;;;12.13;71.92
66762;BME280;53672;48.176;16.338;2022-09-21T17:22:20;99862.50;;;12.01;71.73
66762;BME280;53672;48.176;16.338;2022-09-21T17:27:23;99866.81;;;11.92;72.28
66762;BME280;53672;48.176;16.338;2022-09-21T17:32:23;99871.97;;;11.83;71.92
66762;BME280;53672;48.176;16.338;2022-09-21T17:37:25;99871.72;;;11.75;72.41
66762;BME280;53672;48.176;16.338;2022-09-21T17:42:26;99884.88;;;11.66;72.20
66762;BME280;53672;48.176;16.338;2022-09-21T17:47:28;99880.03;;;11.63;72.12
66762;BME280;53672;48.176;16.338;2022-09-21T17:52:30;99888.94;;;11.58;71.89
66762;BME280;53672;48.176;16.338;2022-09-21T17:57:47;99882.44;;;11.54;71.54
66762;BME280;53672;48.176;16.338;2022-09-21T18:02:51;99883.25;;;11.55;71.66
66762;BME280;53672;48.176;16.338;2022-09-21T18:07:53;99891.34;;;11.55;71.23
66762;BME280;53672;48.176;16.338;2022-09-21T18:13:08;99881.09;;;11.57;70.77
66762;BME280;53672;48.176;16.338;2022-09-21T18:18:17;99882.72;;;11.58;71.82
66762;BME280;53672;48.176;16.338;2022-09-21T18:23:24;99881.09;;;11.47;71.64
66762;BME280;53672;48.176;16.338;2022-09-21T18:28:37;99892.94;;;11.36;71.72
66762;BME280;53672;48.176;16.338;2022-09-21T18:33:43;99896.97;;;11.23;72.29
66762;BME280;53672;48.176;16.338;2022-09-21T18:38:57;99906.34;;;11.10;72.75
66762;BME280;53672;48.176;16.338;2022-09-21T18:44:09;99903.38;;;11.02;72.98
66762;BME280;53672;48.176;16.338;2022-09-21T18:49:16;99914.94;;;10.92;73.22
66762;BME280;53672;48.176;16.338;2022-09-21T18:54:23;99906.75;;;10.82;73.21
66762;BME280;53672;48.176;16.338;2022-09-21T18:59:24;99907.53;;;10.73;73.79
66762;BME280;53672;48.176;16.338;2022-09-21T19:04:25;99912.09;;;10.67;73.89
66762;BME280;53672;48.176;16.338;2022-09-21T19:09:37;99909.13;;;10.63;74.00
66762;BME280;53672;48.176;16.338;2022-09-21T19:14:50;99919.09;;;10.63;74.44
66762;BME280;53672;48.176;16.338;2022-09-21T19:20:01;99918.03;;;10.69;74.77
66762;BME280;53672;48.176;16.338;2022-09-21T19:25:11;99928.03;;;10.74;73.75
66762;BME280;53672;48.176;16.338;2022-09-21T19:30:15;99920.53;;;10.81;72.59
66762;BME280;53672;48.176;16.338;2022-09-21T19:35:21;99921.88;;;10.83;72.45
66762;BME280;53672;48.176;16.338;2022-09-21T19:40:25;99925.44;;;10.89;72.77
66762;BME280;53672;48.176;16.338;2022-09-21T19:45:30;99921.34;;;10.86;73.40
66762;BME280;53672;48.176;16.338;2022-09-21T19:50:37;99934.25;;;10.79;72.57
66762;BME280;53672;48.176;16.338;2022-09-21T19:55:42;99920.72;;;10.69;72.58
66762;BME280;53672;48.176;16.338;2022-09-21T20:00:44;99919.38;;;10.66;72.85
66762;BME280;53672;48.176;16.338;2022-09-21T20:05:50;99918.31;;;10.67;74.62
66762;BME280;53672;48.176;16.338;2022-09-21T20:11:03;99922.31;;;10.60;73.11
66762;BME280;53672;48.176;16.338;2022-09-21T20:16:19;99928.75;;;10.54;73.53
66762;BME280;53672;48.176;16.338;2022-09-21T20:21:26;99918.72;;;10.49;73.56
66762;BME280;53672;48.176;16.338;2022-09-21T20:26:33;99936.75;;;10.44;73.68
66762;BME280;53672;48.176;16.338;2022-09-21T20:31:33;99938.88;;;10.42;74.34
66762;BME280;53672;48.176;16.338;2022-09-21T20:36:34;99930.50;;;10.33;75.51
66762;BME280;53672;48.176;16.338;2022-09-21T20:41:36;99931.72;;;10.21;75.07
66762;BME280;53672;48.176;16.338;2022-09-21T20:46:37;99939.66;;;10.05;75.49
66762;BME280;53672;48.176;16.338;2022-09-21T20:51:37;99935.00;;;9.96;76.05
66762;BME280;53672;48.176;16.338;2022-09-21T20:56:39;99937.84;;;9.84;76.66
66762;BME280;53672;48.176;16.338;2022-09-21T21:01:40;99941.00;;;9.76;76.98
66762;BME280;53672;48.176;16.338;2022-09-21T21:06:40;99934.53;;;9.72;77.82
66762;BME280;53672;48.176;16.338;2022-09-21T21:11:42;99939.09;;;9.72;78.05
66762;BME280;53672;48.176;16.338;2022-09-21T21:16:43;99932.59;;;9.67;77.95
66762;BME280;53672;48.176;16.338;2022-09-21T21:21:43;99930.66;;;9.63;78.60
66762;BME280;53672;48.176;16.338;2022-09-21T21:26:45;99929.19;;;9.50;78.96
66762;BME280;53672;48.176;16.338;2022-09-21T21:31:46;99923.19;;;9.43;79.54
66762;BME280;53672;48.176;16.338;2022-09-21T21:36:46;99928.22;;;9.35;79.89
66762;BME280;53672;48.176;16.338;2022-09-21T21:41:48;99922.22;;;9.28;80.10
66762;BME280;53672;48.176;16.338;2022-09-21T21:46:49;99920.78;;;9.20;80.92
66762;BME280;53672;48.176;16.338;2022-09-21T21:51:50;99922.34;;;9.16;81.28
66762;BME280;53672;48.176;16.338;2022-09-21T21:56:52;99921.00;;;9.13;81.55
66762;BME280;53672;48.176;16.338;2022-09-21T22:01:53;99923.59;;;9.08;81.60
66762;BME280;53672;48.176;16.338;2022-09-21T22:06:53;99914.72;;;9.08;81.82
66762;BME280;53672;48.176;16.338;2022-09-21T22:11:55;99919.47;;;9.01;81.69
66762;BME280;53672;48.176;16.338;2022-09-21T22:16:55;99917.78;;;8.95;81.48
66762;BME280;53672;48.176;16.338;2022-09-21T22:21:56;99915.38;;;8.93;81.33
66762;BME280;53672;48.176;16.338;2022-09-21T22:26:58;99920.16;;;8.91;82.45
66762;BME280;53672;48.176;16.338;2022-09-21T22:31:58;99919.13;;;8.92;82.13
66762;BME280;53672;48.176;16.338;2022-09-21T22:37:00;99908.91;;;8.94;82.32
66762;BME280;53672;48.176;16.338;2022-09-21T22:42:02;99911.91;;;8.98;81.87
66762;BME280;53672;48.176;16.338;2022-09-21T22:47:03;99905.56;;;9.04;81.83
66762;BME280;53672;48.176;16.338;2022-09-21T22:52:03;99901.03;;;9.09;81.29
66762;BME280;53672;48.176;16.338;2022-09-21T22:57:05;99878.47;;;9.10;81.48
66762;BME280;53672;48.176;16.338;2022-09-21T23:02:06;99890.31;;;9.14;80.91
66762;BME280;53672;48.176;16.338;2022-09-21T23:07:06;99880.97;;;9.17;80.93
66762;BME280;53672;48.176;16.338;2022-09-21T23:12:08;99883.69;;;9.22;80.69
66762;BME280;53672;48.176;16.338;2022-09-21T23:17:09;99899.59;;;9.24;81.08
66762;BME280;53672;48.176;16.338;2022-09-21T23:22:09;99893.63;;;9.22;80.74
66762;BME280;53672;48.176;16.338;2022-09-21T23:27:11;99887.19;;;9.23;80.71
66762;BME280;53672;48.176;16.338;2022-09-21T23:32:11;99885.56;;;9.22;80.68
66762;BME280;53672;48.176;16.338;2022-09-21T23:37:12;99879.41;;;9.21;80.53
66762;BME280;53672;48.176;16.338;2022-09-21T23:42:14;99876.94;;;9.20;80.76
66762;BME280;53672;48.176;16.338;2022-09-21T23:47:14;99882.03;;;9.16;80.79
66762;BME280;53672;48.176;16.338;2022-09-21T23:52:14;99879.22;;;9.06;81.00
66762;BME280;53672;48.176;16.338;2022-09-21T23:57:16;99879.34;;;8.94;81.79
